Time;durP1;ratioP1;P1;durP2;ratioP2;P2;SDS_P1;SDS_P2;PMS_P1;PMS_P2;Temp;Humidity;BMP_temperature;BMP_pressure;BME280_temperature;BME280_humidity;BME280_pressure;Samples;Min_cycle;Max_cycle;Signal;HPM_P1;HPM_P2
2023/01/12 00:01:43;;;;;;;6.23;5.60;;;;;;;;;;5100918;28;20206;-82
2023/01/12 00:04:12;;;;;;;3.83;3.53;;;;;;;;;;5097301;28;20211;-81
2023/01/12 00:06:39;;;;;;;2.00;1.90;;;;;;;;;;5111382;28;20609;-81
2023/01/12 00:09:07;;;;;;;2.73;2.13;;;;;;;;;;5097561;28;20192;-82
2023/01/12 00:11:34;;;;;;;3.37;2.53;;;;;;;;;;5100173;28;20295;-86
2023/01/12 00:14:02;;;;;;;16.47;4.60;;;;;;;;;;5090366;28;20200;-81
2023/01/12 00:16:36;;;;;;;2.67;2.10;;;;;;;;;;5090526;28;20257;-81
2023/01/12 00:19:05;;;;;;;4.70;2.87;;;;;;;;;;5097225;28;20199;-81
2023/01/12 00:21:35;;;;;;;9.97;6.13;;;;;;;;;;5110944;28;20238;-80
2023/01/12 00:24:02;;;;;;;1.27;1.17;;;;;;;;;;5077806;28;20196;-81
2023/01/12 00:26:30;;;;;;;1.07;1.00;;;;;;;;;;5103911;28;20207;-81
2023/01/12 00:28:57;;;;;;;0.80;0.80;;;;;;;;;;5077977;28;20710;-81
2023/01/12 00:31:25;;;;;;;0.93;0.90;;;;;;;;;;5079068;28;20197;-81
2023/01/12 00:33:52;;;;;;;0.70;0.63;;;;;;;;;;5114716;28;20204;-81
2023/01/12 00:36:19;;;;;;;2.10;1.90;;;;;;;;;;5112885;28;20243;-81
2023/01/12 00:38:47;;;;;;;1.33;0.80;;;;;;;;;;5094560;28;20210;-81
2023/01/12 00:45:20;;;;;;;0.20;0.20;;;;;;;;;;5080476;28;20236;-81
2023/01/12 00:46:48;;;;;;;0.20;0.20;;;;;;;;;;5074368;28;20232;-82
2023/01/12 00:49:15;;;;;;;0.30;0.30;;;;;;;;;;5089072;28;20203;-81
2023/01/12 00:51:41;;;;;;;0.20;0.20;;;;;;;;;;5094466;28;20200;-81
2023/01/12 00:54:08;;;;;;;0.17;0.17;;;;;;;;;;5093890;28;20208;-82
2023/01/12 00:56:35;;;;;;;0.40;0.37;;;;;;;;;;5094674;28;20257;-81
2023/01/12 00:59:02;;;;;;;0.33;0.20;;;;;;;;;;5107873;28;20204;-81
2023/01/12 01:01:29;;;;;;;0.20;0.20;;;;;;;;;;5093699;28;20207;-81
2023/01/12 01:03:57;;;;;;;0.20;0.20;;;;;;;;;;5108318;28;20206;-82
2023/01/12 01:06:24;;;;;;;0.23;0.23;;;;;;;;;;5114218;28;20706;-82
2023/01/12 01:08:50;;;;;;;0.20;0.20;;;;;;;;;;5099317;28;20240;-80
2023/01/12 01:11:18;;;;;;;0.10;0.10;;;;;;;;;;5101841;28;20200;-80
2023/01/12 01:13:45;;;;;;;0.50;0.50;;;;;;;;;;5097258;28;20196;-80
2023/01/12 01:16:13;;;;;;;1.43;1.33;;;;;;;;;;5081693;28;20674;-80
2023/01/12 01:18:40;;;;;;;16.67;8.20;;;;;;;;;;5093368;28;20204;-79
2023/01/12 01:21:10;;;;;;;4.73;2.50;;;;;;;;;;5093103;28;20674;-79
2023/01/12 01:23:37;;;;;;;1.07;0.93;;;;;;;;;;5093308;28;20208;-79
2023/01/12 01:26:05;;;;;;;0.30;0.30;;;;;;;;;;5093211;28;20207;-80
2023/01/12 01:28:32;;;;;;;0.40;0.40;;;;;;;;;;5080263;28;20648;-80
2023/01/12 01:31:03;;;;;;;0.20;0.20;;;;;;;;;;5113961;28;20665;-81
2023/01/12 01:33:30;;;;;;;0.40;0.40;;;;;;;;;;5113816;28;20196;-80
2023/01/12 01:35:57;;;;;;;0.20;0.20;;;;;;;;;;5113397;28;20211;-81
2023/01/12 01:38:25;;;;;;;0.20;0.20;;;;;;;;;;5104139;28;20266;-80
2023/01/12 01:40:52;;;;;;;0.47;0.47;;;;;;;;;;5096219;28;20211;-80
2023/01/12 01:43:20;;;;;;;3.27;2.97;;;;;;;;;;5112211;28;20260;-81
2023/01/12 01:45:51;;;;;;;0.90;0.90;;;;;;;;;;5113193;28;20226;-80
2023/01/12 01:48:18;;;;;;;1.23;1.13;;;;;;;;;;5107498;28;20239;-83
2023/01/12 01:50:48;;;;;;;0.30;0.30;;;;;;;;;;5105529;28;20618;-81
2023/01/12 01:53:19;;;;;;;0.37;0.37;;;;;;;;;;5099748;28;20215;-80
2023/01/12 01:55:51;;;;;;;0.20;0.20;;;;;;;;;;5112564;28;20655;-80
2023/01/12 01:58:21;;;;;;;0.47;0.30;;;;;;;;;;5112849;28;20694;-80
2023/01/12 02:00:48;;;;;;;0.63;0.43;;;;;;;;;;5084257;28;20205;-80
2023/01/12 02:03:15;;;;;;;0.10;0.10;;;;;;;;;;5092884;28;20588;-80
2023/01/12 02:05:45;;;;;;;0.30;0.30;;;;;;;;;;5079102;28;20232;-80
2023/01/12 02:08:18;;;;;;;0.10;0.10;;;;;;;;;;5102163;28;20238;-80
2023/01/12 02:10:46;;;;;;;0.10;0.10;;;;;;;;;;5091328;28;20701;-79
2023/01/12 02:18:49;;;;;;;0.47;0.40;;;;;;;;;;5081564;28;20214;-81
2023/01/12 02:21:30;;;;;;;0.20;0.20;;;;;;;;;;5112585;28;20260;-79
2023/01/12 02:24:20;;;;;;;0.00;0.00;;;;;;;;;;5098553;28;20199;-80
2023/01/12 02:27:13;;;;;;;0.20;0.13;;;;;;;;;;5085314;28;20287;-81
2023/01/12 02:30:12;;;;;;;0.30;0.30;;;;;;;;;;5112689;28;20260;-79
2023/01/12 02:32:44;;;;;;;0.27;0.20;;;;;;;;;;5091303;28;20197;-80
2023/01/12 02:35:16;;;;;;;0.20;0.20;;;;;;;;;;5099165;28;20259;-81
2023/01/12 02:37:46;;;;;;;0.20;0.20;;;;;;;;;;5096743;28;20645;-82
2023/01/12 02:40:21;;;;;;;0.23;0.23;;;;;;;;;;5106263;28;20616;-80
2023/01/12 02:42:53;;;;;;;0.20;0.20;;;;;;;;;;5091705;28;20207;-80
2023/01/12 02:45:27;;;;;;;0.10;0.10;;;;;;;;;;5092151;28;20589;-80
2023/01/12 02:47:58;;;;;;;0.30;0.30;;;;;;;;;;5093547;28;20220;-78
2023/01/12 02:50:30;;;;;;;0.23;0.23;;;;;;;;;;5111830;28;20709;-80
2023/01/12 02:53:02;;;;;;;0.33;0.30;;;;;;;;;;5084602;28;20203;-79
2023/01/12 02:55:30;;;;;;;0.17;0.17;;;;;;;;;;5111316;28;20204;-78
2023/01/12 02:57:57;;;;;;;0.50;0.50;;;;;;;;;;5107027;28;20196;-80
2023/01/12 03:00:24;;;;;;;0.30;0.30;;;;;;;;;;5103538;28;20598;-80
2023/01/12 03:02:51;;;;;;;0.27;0.10;;;;;;;;;;5087839;28;20201;-80
2023/01/12 03:05:19;;;;;;;0.43;0.27;;;;;;;;;;5096164;28;20235;-80
2023/01/12 03:07:49;;;;;;;0.40;0.40;;;;;;;;;;5091990;28;20715;-81
2023/01/12 03:10:27;;;;;;;0.43;0.43;;;;;;;;;;5078485;28;20201;-80
2023/01/12 03:12:55;;;;;;;2.03;0.27;;;;;;;;;;5071369;28;20204;-79
2023/01/12 03:15:25;;;;;;;1.00;0.90;;;;;;;;;;5073580;28;20390;-80
2023/01/12 03:17:56;;;;;;;1.70;1.60;;;;;;;;;;5091056;28;20269;-81
2023/01/12 03:20:26;;;;;;;0.60;0.60;;;;;;;;;;5091368;28;20219;-80
2023/01/12 03:22:56;;;;;;;1.43;0.40;;;;;;;;;;5090979;28;20212;-81
2023/01/12 03:25:23;;;;;;;0.50;0.33;;;;;;;;;;5109471;28;20203;-80
2023/01/12 03:27:52;;;;;;;0.30;0.30;;;;;;;;;;5100444;28;20220;-80
2023/01/12 03:30:21;;;;;;;0.40;0.40;;;;;;;;;;5099703;28;20676;-80
2023/01/12 03:32:48;;;;;;;0.40;0.40;;;;;;;;;;5095079;28;20200;-80
2023/01/12 03:35:15;;;;;;;2.40;1.93;;;;;;;;;;5087356;28;20208;-81
2023/01/12 03:37:46;;;;;;;0.80;0.70;;;;;;;;;;5083653;28;20196;-80
2023/01/12 03:40:15;;;;;;;0.30;0.30;;;;;;;;;;5097722;28;20207;-80
2023/01/12 03:42:47;;;;;;;1.77;1.57;;;;;;;;;;5111446;28;20244;-80
2023/01/12 03:45:21;;;;;;;2.47;2.27;;;;;;;;;;5111429;28;20205;-80
2023/01/12 03:47:52;;;;;;;15.90;9.07;;;;;;;;;;5080465;28;20228;-81
2023/01/12 03:50:21;;;;;;;0.87;0.77;;;;;;;;;;5080834;28;20591;-81
2023/01/12 03:52:50;;;;;;;0.23;0.23;;;;;;;;;;5088428;28;20213;-80
2023/01/12 03:55:18;;;;;;;0.20;0.20;;;;;;;;;;5071011;28;20197;-80
2023/01/12 03:57:46;;;;;;;1.40;1.20;;;;;;;;;;5088267;28;20204;-85
2023/01/12 04:00:15;;;;;;;0.30;0.30;;;;;;;;;;5101798;28;20256;-81
2023/01/12 04:02:43;;;;;;;0.30;0.30;;;;;;;;;;5093627;28;20208;-80
2023/01/12 04:05:10;;;;;;;0.57;0.57;;;;;;;;;;5096261;28;20239;-80
2023/01/12 04:07:37;;;;;;;0.20;0.20;;;;;;;;;;5098425;28;20200;-81
2023/01/12 04:10:06;;;;;;;0.57;0.40;;;;;;;;;;5104154;28;20827;-81
2023/01/12 04:12:33;;;;;;;1.07;0.90;;;;;;;;;;5104709;28;20261;-80
2023/01/12 04:15:00;;;;;;;4.13;2.57;;;;;;;;;;5106314;28;20245;-81
2023/01/12 04:17:28;;;;;;;1.57;1.20;;;;;;;;;;5101803;28;20265;-81
2023/01/12 04:19:54;;;;;;;0.73;0.73;;;;;;;;;;5098467;28;20666;-80
2023/01/12 04:25:11;;;;;;;0.30;0.30;;;;;;;;;;5095507;28;20206;-81
2023/01/12 04:27:41;;;;;;;0.97;0.50;;;;;;;;;;5101148;28;20214;-81
2023/01/12 04:30:09;;;;;;;1.00;0.90;;;;;;;;;;5082054;28;20208;-81
2023/01/12 04:32:36;;;;;;;0.67;0.67;;;;;;;;;;5107829;28;20203;-81
2023/01/12 04:35:04;;;;;;;1.37;1.27;;;;;;;;;;5090203;28;20578;-81
2023/01/12 04:37:32;;;;;;;1.13;0.90;;;;;;;;;;5114601;28;20211;-80
2023/01/12 04:39:58;;;;;;;2.43;2.10;;;;;;;;;;5115174;28;20207;-81
2023/01/12 04:45:11;;;;;;;2.53;2.03;;;;;;;;;;5110958;28;20597;-81
2023/01/12 04:47:38;;;;;;;0.53;0.53;;;;;;;;;;5105295;28;20674;-81
2023/01/12 04:50:06;;;;;;;1.40;1.30;;;;;;;;;;5094782;28;20209;-81
2023/01/12 04:52:32;;;;;;;3.23;2.93;;;;;;;;;;5080780;28;20201;-81
2023/01/12 04:54:59;;;;;;;6.23;3.80;;;;;;;;;;5082296;28;20201;-81
2023/01/12 04:57:27;;;;;;;1.20;1.10;;;;;;;;;;5092285;28;20671;-81
2023/01/12 04:59:54;;;;;;;1.40;0.87;;;;;;;;;;5094446;28;20207;-81
2023/01/12 05:02:21;;;;;;;1.20;1.10;;;;;;;;;;5093543;28;20586;-82
2023/01/12 05:04:48;;;;;;;0.60;0.60;;;;;;;;;;5093670;28;20211;-81
2023/01/12 05:07:15;;;;;;;1.23;1.13;;;;;;;;;;5093904;28;20215;-81
2023/01/12 05:12:27;;;;;;;1.93;1.20;;;;;;;;;;5101559;28;20206;-81
2023/01/12 05:14:54;;;;;;;0.87;0.87;;;;;;;;;;5099458;28;20191;-81
2023/01/12 05:17:21;;;;;;;1.63;1.27;;;;;;;;;;5088782;28;20213;-82
2023/01/12 05:19:48;;;;;;;2.07;1.17;;;;;;;;;;5087455;28;20213;-82
2023/01/12 05:22:17;;;;;;;6.20;4.67;;;;;;;;;;5086454;28;20215;-83
2023/01/12 05:24:43;;;;;;;0.87;0.80;;;;;;;;;;5080399;28;20208;-82
2023/01/12 05:27:10;;;;;;;1.33;1.20;;;;;;;;;;5094554;28;20281;-85
2023/01/12 05:29:41;;;;;;;1.00;0.90;;;;;;;;;;5084278;28;20600;-82
2023/01/12 05:32:09;;;;;;;1.70;1.53;;;;;;;;;;5093914;28;20192;-82
2023/01/12 05:34:36;;;;;;;1.17;1.10;;;;;;;;;;5106474;28;20640;-81
2023/01/12 05:37:02;;;;;;;1.30;1.20;;;;;;;;;;5093025;28;20710;-83
2023/01/12 05:39:29;;;;;;;0.80;0.80;;;;;;;;;;5098316;28;20204;-82
2023/01/12 05:44:43;;;;;;;3.13;2.60;;;;;;;;;;5080728;28;20216;-82
2023/01/12 05:47:10;;;;;;;2.20;1.97;;;;;;;;;;5078568;28;20201;-82
2023/01/12 05:49:36;;;;;;;1.30;1.20;;;;;;;;;;5088755;28;20227;-83
2023/01/12 05:52:03;;;;;;;6.43;5.83;;;;;;;;;;5111578;28;20635;-82
2023/01/12 05:54:30;;;;;;;6.97;5.80;;;;;;;;;;5093212;28;20204;-82
2023/01/12 05:56:57;;;;;;;2.80;2.50;;;;;;;;;;5092834;28;20215;-82
2023/01/12 05:59:24;;;;;;;9.30;7.13;;;;;;;;;;5092600;28;20215;-82
2023/01/12 06:01:52;;;;;;;7.73;7.03;;;;;;;;;;5092850;28;20200;-82
2023/01/12 06:04:19;;;;;;;12.00;10.70;;;;;;;;;;5110207;28;20206;-82
2023/01/12 06:06:47;;;;;;;26.50;20.07;;;;;;;;;;5113143;28;20240;-83
2023/01/12 06:09:14;;;;;;;11.33;9.03;;;;;;;;;;5108330;28;20323;-82
2023/01/12 06:14:25;;;;;;;5.03;3.60;;;;;;;;;;5079714;28;20614;-82
2023/01/12 06:16:53;;;;;;;36.63;26.67;;;;;;;;;;5092147;28;20591;-83
2023/01/12 06:19:20;;;;;;;35.63;27.70;;;;;;;;;;5099849;28;20207;-83
2023/01/12 06:21:47;;;;;;;14.63;12.03;;;;;;;;;;5098011;28;20201;-82
2023/01/12 06:24:14;;;;;;;38.83;28.13;;;;;;;;;;5092633;28;20261;-82
2023/01/12 06:26:43;;;;;;;31.77;23.43;;;;;;;;;;5106611;28;20203;-82
2023/01/12 06:29:10;;;;;;;18.63;12.53;;;;;;;;;;5111799;28;20740;-82
2023/01/12 06:31:37;;;;;;;15.30;10.37;;;;;;;;;;5110594;28;20204;-82
2023/01/12 06:34:06;;;;;;;104.03;51.17;;;;;;;;;;5083331;28;20659;-83
2023/01/12 06:36:34;;;;;;;12.13;7.30;;;;;;;;;;5103748;28;20199;-82
2023/01/12 06:39:01;;;;;;;9.73;6.50;;;;;;;;;;5112029;28;20208;-82
2023/01/12 06:44:12;;;;;;;39.20;22.67;;;;;;;;;;5091880;28;21167;-83
2023/01/12 06:46:39;;;;;;;9.73;5.60;;;;;;;;;;5087744;28;20208;-82
2023/01/12 06:49:07;;;;;;;22.63;12.60;;;;;;;;;;5088169;28;20229;-90
2023/01/12 06:51:34;;;;;;;55.07;37.43;;;;;;;;;;5092919;28;20221;-81
2023/01/12 06:54:01;;;;;;;37.87;26.53;;;;;;;;;;5112276;28;20236;-83
2023/01/12 06:56:27;;;;;;;24.60;15.77;;;;;;;;;;5105536;28;20200;-83
2023/01/12 06:58:54;;;;;;;12.77;10.07;;;;;;;;;;5091835;28;20204;-84
2023/01/12 07:01:21;;;;;;;32.20;20.53;;;;;;;;;;5105131;28;20683;-83
2023/01/12 07:03:48;;;;;;;4.17;3.17;;;;;;;;;;5104820;28;20200;-82
2023/01/12 07:06:16;;;;;;;10.13;8.27;;;;;;;;;;5078004;28;20236;-81
2023/01/12 07:08:43;;;;;;;5.10;4.00;;;;;;;;;;5104759;28;20223;-83
2023/01/12 07:11:11;;;;;;;1.70;1.60;;;;;;;;;;5091711;28;20261;-81
2023/01/12 07:13:38;;;;;;;1.80;1.70;;;;;;;;;;5091100;28;20263;-83
2023/01/12 07:16:05;;;;;;;1.33;1.23;;;;;;;;;;5091115;28;20572;-82
2023/01/12 07:18:32;;;;;;;4.30;2.13;;;;;;;;;;5091213;28;20219;-82
2023/01/12 07:20:59;;;;;;;14.10;10.63;;;;;;;;;;5086204;28;20199;-82
2023/01/12 07:23:27;;;;;;;2.93;2.57;;;;;;;;;;5097856;28;20212;-82
2023/01/12 07:25:56;;;;;;;6.20;5.53;;;;;;;;;;5103814;28;20197;-82
2023/01/12 07:28:23;;;;;;;13.03;7.23;;;;;;;;;;5106358;28;20211;-82
2023/01/12 07:30:50;;;;;;;4.40;2.97;;;;;;;;;;5111758;28;20618;-82
2023/01/12 07:33:17;;;;;;;2.13;1.93;;;;;;;;;;5084018;28;20263;-82
2023/01/12 07:35:44;;;;;;;9.57;6.70;;;;;;;;;;5102075;28;20211;-82
2023/01/12 07:38:13;;;;;;;2.80;2.37;;;;;;;;;;5091244;28;20610;-83
2023/01/12 07:40:41;;;;;;;6.20;3.00;;;;;;;;;;5090707;28;20196;-81
2023/01/12 07:43:10;;;;;;;1.83;1.70;;;;;;;;;;5094490;28;20203;-82
2023/01/12 07:45:37;;;;;;;1.70;1.60;;;;;;;;;;5100895;28;20215;-82
2023/01/12 07:48:04;;;;;;;2.00;1.60;;;;;;;;;;5077460;28;20204;-82
2023/01/12 07:50:31;;;;;;;1.07;1.03;;;;;;;;;;5091145;28;20717;-82
2023/01/12 07:53:01;;;;;;;1.00;1.00;;;;;;;;;;5077989;28;20211;-83
2023/01/12 07:55:30;;;;;;;2.00;1.50;;;;;;;;;;5090888;28;20638;-84
2023/01/12 07:57:59;;;;;;;1.97;1.83;;;;;;;;;;5090628;28;20583;-86
2023/01/12 08:00:28;;;;;;;1.70;1.60;;;;;;;;;;5091095;28;20208;-81
2023/01/12 08:02:57;;;;;;;1.43;1.33;;;;;;;;;;5104651;28;20208;-80
2023/01/12 08:05:24;;;;;;;1.50;1.40;;;;;;;;;;5090516;28;20264;-81
2023/01/12 08:07:51;;;;;;;5.33;2.40;;;;;;;;;;5097509;28;20214;-80
2023/01/12 08:10:18;;;;;;;2.40;2.20;;;;;;;;;;5083765;28;20676;-85
2023/01/12 08:12:45;;;;;;;1.80;1.70;;;;;;;;;;5111058;28;20207;-81
2023/01/12 08:15:13;;;;;;;1.20;1.17;;;;;;;;;;5097140;28;20265;-81
2023/01/12 08:17:44;;;;;;;1.90;1.80;;;;;;;;;;5083403;28;20201;-81
2023/01/12 08:20:16;;;;;;;2.73;2.53;;;;;;;;;;5100253;28;20211;-81
2023/01/12 08:22:44;;;;;;;1.67;1.57;;;;;;;;;;5110757;28;20204;-80
2023/01/12 08:25:14;;;;;;;1.37;1.27;;;;;;;;;;5108137;28;20639;-80
2023/01/12 08:27:43;;;;;;;1.60;1.50;;;;;;;;;;5100605;28;20200;-81
2023/01/12 08:30:15;;;;;;;2.67;1.30;;;;;;;;;;5093300;28;20292;-81
2023/01/12 08:32:42;;;;;;;0.90;0.90;;;;;;;;;;5101894;28;20203;-82
2023/01/12 08:35:09;;;;;;;1.13;1.03;;;;;;;;;;5106053;28;20212;-81
2023/01/12 08:37:36;;;;;;;1.60;1.50;;;;;;;;;;5090627;28;20205;-81
2023/01/12 08:40:04;;;;;;;1.40;1.30;;;;;;;;;;5104492;28;20204;-81
2023/01/12 08:42:31;;;;;;;1.93;1.70;;;;;;;;;;5102598;28;20208;-82
2023/01/12 08:44:58;;;;;;;0.90;0.90;;;;;;;;;;5110431;28;20240;-85
2023/01/12 08:47:29;;;;;;;0.70;0.70;;;;;;;;;;5098554;28;20679;-84
2023/01/12 08:49:56;;;;;;;1.30;1.03;;;;;;;;;;5090521;28;20220;-82
2023/01/12 08:52:24;;;;;;;1.40;1.30;;;;;;;;;;5104407;28;20200;-81
2023/01/12 08:54:51;;;;;;;1.20;1.20;;;;;;;;;;5087701;28;20291;-81
2023/01/12 08:57:18;;;;;;;1.10;1.10;;;;;;;;;;5114327;28;20203;-82
2023/01/12 08:59:45;;;;;;;0.97;0.97;;;;;;;;;;5080231;28;20691;-82
2023/01/12 09:02:12;;;;;;;0.87;0.87;;;;;;;;;;5093691;28;20200;-82
2023/01/12 09:04:40;;;;;;;1.40;1.30;;;;;;;;;;5079894;28;20658;-82
2023/01/12 09:07:07;;;;;;;1.30;1.20;;;;;;;;;;5080748;28;20222;-81
2023/01/12 09:09:35;;;;;;;1.87;1.77;;;;;;;;;;5106864;28;20583;-81
2023/01/12 09:12:03;;;;;;;2.20;2.00;;;;;;;;;;5092348;28;20204;-81
2023/01/12 09:14:30;;;;;;;1.90;1.80;;;;;;;;;;5073380;28;20753;-82
2023/01/12 09:16:57;;;;;;;1.40;1.10;;;;;;;;;;5088939;28;20621;-81
2023/01/12 09:19:24;;;;;;;2.07;1.60;;;;;;;;;;5093499;28;20211;-82
2023/01/12 09:21:52;;;;;;;1.20;1.13;;;;;;;;;;5091777;28;20626;-81
2023/01/12 09:24:19;;;;;;;0.80;0.80;;;;;;;;;;5090995;28;20698;-82
2023/01/12 09:26:46;;;;;;;2.13;1.60;;;;;;;;;;5095475;28;20200;-81
2023/01/12 09:29:14;;;;;;;3.27;2.53;;;;;;;;;;5082190;28;20204;-82
2023/01/12 09:31:42;;;;;;;5.27;2.20;;;;;;;;;;5090298;28;20686;-81
2023/01/12 09:34:09;;;;;;;6.70;5.37;;;;;;;;;;5082589;28;20204;-83
2023/01/12 09:36:38;;;;;;;5.47;4.63;;;;;;;;;;5093156;28;20211;-81
2023/01/12 09:39:07;;;;;;;4.70;3.07;;;;;;;;;;5093142;28;20212;-81
2023/01/12 09:47:12;;;;;;;16.57;9.20;;;;;;;;;;5092754;28;20211;-82
2023/01/12 09:49:43;;;;;;;6.90;4.13;;;;;;;;;;5093311;28;20231;-81
2023/01/12 09:52:13;;;;;;;56.00;35.40;;;;;;;;;;5093035;28;20778;-81
2023/01/12 09:54:42;;;;;;;13.67;10.33;;;;;;;;;;5092955;28;20200;-81
2023/01/12 09:57:18;;;;;;;11.67;8.17;;;;;;;;;;5092991;28;20203;-81
2023/01/12 09:59:52;;;;;;;3.37;2.90;;;;;;;;;;5079728;28;20207;-83
2023/01/12 10:02:19;;;;;;;1.73;1.60;;;;;;;;;;5091455;28;20238;-81
2023/01/12 10:04:46;;;;;;;0.43;0.43;;;;;;;;;;5079250;28;20208;-82
2023/01/12 10:07:15;;;;;;;1.83;1.53;;;;;;;;;;5092556;28;20208;-82
2023/01/12 10:09:43;;;;;;;7.43;5.37;;;;;;;;;;5101120;28;20223;-81
2023/01/12 10:12:17;;;;;;;4.30;3.07;;;;;;;;;;5111393;28;20208;-81
2023/01/12 10:14:59;;;;;;;14.17;9.53;;;;;;;;;;5083251;28;20204;-81
2023/01/12 10:17:33;;;;;;;2.23;2.00;;;;;;;;;;5090815;28;20196;-81
2023/01/12 10:20:05;;;;;;;0.80;0.80;;;;;;;;;;5092466;28;20667;-83
2023/01/12 10:22:39;;;;;;;0.60;0.60;;;;;;;;;;5092783;28;20561;-82
2023/01/12 10:25:21;;;;;;;16.03;7.67;;;;;;;;;;5092473;28;20204;-81
2023/01/12 10:27:51;;;;;;;22.43;14.60;;;;;;;;;;5092318;28;20200;-81
2023/01/12 10:30:23;;;;;;;2.37;1.70;;;;;;;;;;5096612;28;20590;-81
2023/01/12 10:32:50;;;;;;;7.67;5.23;;;;;;;;;;5100132;28;20203;-81
2023/01/12 10:35:19;;;;;;;12.63;6.00;;;;;;;;;;5106065;28;20566;-82
2023/01/12 10:37:47;;;;;;;94.00;42.57;;;;;;;;;;5091815;28;20207;-82
2023/01/12 10:40:25;;;;;;;15.57;8.57;;;;;;;;;;5111777;28;20207;-81
2023/01/12 10:45:37;;;;;;;6.83;4.50;;;;;;;;;;5092054;28;20215;-81
2023/01/12 10:48:16;;;;;;;1.90;1.10;;;;;;;;;;5078156;28;20704;-82
2023/01/12 10:50:43;;;;;;;1.00;0.90;;;;;;;;;;5091751;28;20583;-82
2023/01/12 10:53:14;;;;;;;1.47;1.37;;;;;;;;;;5078057;28;20215;-82
2023/01/12 10:55:43;;;;;;;0.90;0.90;;;;;;;;;;5078479;28;20280;-81
2023/01/12 10:58:20;;;;;;;1.50;1.40;;;;;;;;;;5078847;28;20627;-81
2023/01/12 11:00:48;;;;;;;1.67;1.30;;;;;;;;;;5091418;28;20755;-82
2023/01/12 11:03:30;;;;;;;2.00;1.50;;;;;;;;;;5100465;28;20215;-82
2023/01/12 11:05:56;;;;;;;1.00;1.00;;;;;;;;;;5107202;28;20342;-82
2023/01/12 11:08:27;;;;;;;0.77;0.77;;;;;;;;;;5102813;28;20208;-81
2023/01/12 11:10:55;;;;;;;0.87;0.87;;;;;;;;;;5106420;28;20228;-81
2023/01/12 11:13:26;;;;;;;1.00;1.00;;;;;;;;;;5091657;28;20596;-82
2023/01/12 11:15:58;;;;;;;1.63;0.93;;;;;;;;;;5090714;28;20203;-82
2023/01/12 11:18:33;;;;;;;2.60;1.00;;;;;;;;;;5091646;28;20204;-82
2023/01/12 11:21:02;;;;;;;1.93;1.73;;;;;;;;;;5091517;28;20192;-81
2023/01/12 11:23:32;;;;;;;1.13;1.03;;;;;;;;;;5091674;28;20204;-81
2023/01/12 11:26:02;;;;;;;1.40;1.30;;;;;;;;;;5091500;28;20598;-81
2023/01/12 11:28:32;;;;;;;1.20;1.10;;;;;;;;;;5091250;28;20192;-81
2023/01/12 11:31:02;;;;;;;1.30;1.20;;;;;;;;;;5091158;28;20661;-80
2023/01/12 11:33:31;;;;;;;1.50;1.40;;;;;;;;;;5091249;28;20671;-81
2023/01/12 11:36:01;;;;;;;0.93;0.93;;;;;;;;;;5091691;28;20257;-81
2023/01/12 11:38:32;;;;;;;2.33;1.93;;;;;;;;;;5090415;28;20739;-81
2023/01/12 11:41:00;;;;;;;7.57;5.30;;;;;;;;;;5091040;28;20211;-81
2023/01/12 11:43:50;;;;;;;1.10;1.00;;;;;;;;;;5083873;28;20203;-81
2023/01/12 11:46:25;;;;;;;0.80;0.80;;;;;;;;;;5110463;28;20815;-81
2023/01/12 11:49:00;;;;;;;1.43;1.27;;;;;;;;;;5111124;28;20585;-81
2023/01/12 11:51:27;;;;;;;3.57;2.73;;;;;;;;;;5110792;28;20234;-81
2023/01/12 11:53:54;;;;;;;6.30;4.73;;;;;;;;;;5099121;28;20207;-82
2023/01/12 11:56:47;;;;;;;1.47;1.23;;;;;;;;;;5082942;28;20207;-81
2023/01/12 11:59:17;;;;;;;0.60;0.60;;;;;;;;;;5096761;28;20270;-82
2023/01/12 12:01:51;;;;;;;0.80;0.80;;;;;;;;;;5111110;28;20203;-81
2023/01/12 12:04:31;;;;;;;0.70;0.70;;;;;;;;;;5093437;28;20204;-82
2023/01/12 12:07:16;;;;;;;3.80;2.30;;;;;;;;;;5050842;28;20197;-81
2023/01/12 12:10:00;;;;;;;5.43;4.73;;;;;;;;;;5039373;28;20201;-81
2023/01/12 12:12:35;;;;;;;1.53;1.43;;;;;;;;;;5049138;28;20280;-81
2023/01/12 12:15:14;;;;;;;0.93;0.93;;;;;;;;;;5050421;28;20684;-82
2023/01/12 12:17:50;;;;;;;1.03;1.03;;;;;;;;;;5030718;28;20199;-82
2023/01/12 12:20:26;;;;;;;0.63;0.63;;;;;;;;;;5060663;28;20217;-81
2023/01/12 12:23:02;;;;;;;2.83;1.07;;;;;;;;;;5070753;28;20227;-81
2023/01/12 12:25:37;;;;;;;4.80;3.70;;;;;;;;;;5057331;28;20205;-81
2023/01/12 12:28:30;;;;;;;8.13;4.67;;;;;;;;;;5072552;28;20205;-81
2023/01/12 12:31:07;;;;;;;3.07;2.87;;;;;;;;;;5044716;28;20284;-80
2023/01/12 12:33:49;;;;;;;2.90;2.70;;;;;;;;;;5048077;28;20198;-80
2023/01/12 12:36:18;;;;;;;1.73;1.63;;;;;;;;;;5061385;28;20295;-81
2023/01/12 12:39:10;;;;;;;3.27;1.97;;;;;;;;;;5073834;28;20209;-82
2023/01/12 12:47:38;;;;;;;5.17;4.27;;;;;;;;;;5062525;28;20347;-82
2023/01/12 12:50:15;;;;;;;2.50;2.07;;;;;;;;;;5041342;28;20205;-84
2023/01/12 12:52:42;;;;;;;1.70;1.60;;;;;;;;;;5038393;28;20199;-81
2023/01/12 12:55:11;;;;;;;2.23;2.07;;;;;;;;;;5043049;28;20202;-81
2023/01/12 12:57:59;;;;;;;1.20;1.13;;;;;;;;;;5050343;28;20249;-81
2023/01/12 13:00:41;;;;;;;1.67;1.57;;;;;;;;;;5046102;28;20217;-81
2023/01/12 13:03:10;;;;;;;8.67;6.80;;;;;;;;;;5049297;28;20654;-81
2023/01/12 13:05:43;;;;;;;2.10;1.87;;;;;;;;;;5063545;28;20237;-82
2023/01/12 13:08:21;;;;;;;1.87;1.77;;;;;;;;;;5093343;28;20216;-81
2023/01/12 13:10:50;;;;;;;1.60;1.50;;;;;;;;;;5090184;28;20293;-81
2023/01/12 13:13:24;;;;;;;1.90;1.63;;;;;;;;;;5084787;28;20211;-81
2023/01/12 13:16:43;;;;;;;1.80;1.70;;;;;;;;;;5093513;28;20208;-81
2023/01/12 13:19:33;;;;;;;3.37;2.00;;;;;;;;;;5113816;28;20211;-81
2023/01/12 13:22:18;;;;;;;2.50;2.30;;;;;;;;;;5113448;28;20275;-81
2023/01/12 13:24:45;;;;;;;2.10;1.70;;;;;;;;;;5101391;28;20208;-81
2023/01/12 13:27:45;;;;;;;2.47;2.27;;;;;;;;;;5093240;28;20287;-81
2023/01/12 13:30:21;;;;;;;10.80;9.00;;;;;;;;;;5086949;28;20709;-80
2023/01/12 13:32:57;;;;;;;5.47;4.97;;;;;;;;;;5093251;28;20567;-82
2023/01/12 13:35:51;;;;;;;5.57;4.97;;;;;;;;;;5092895;28;20214;-81
2023/01/12 13:38:27;;;;;;;3.77;2.40;;;;;;;;;;5096478;28;20215;-80
2023/01/12 13:41:02;;;;;;;2.47;1.87;;;;;;;;;;5113366;28;20214;-81
2023/01/12 13:43:31;;;;;;;9.97;7.90;;;;;;;;;;5113151;28;20199;-81
2023/01/12 13:46:02;;;;;;;1.90;1.80;;;;;;;;;;5112980;28;20210;-83
2023/01/12 13:48:29;;;;;;;1.20;1.10;;;;;;;;;;5072739;28;20205;-80
2023/01/12 13:51:01;;;;;;;0.90;0.90;;;;;;;;;;5086481;28;20232;-80
2023/01/12 13:53:30;;;;;;;1.53;1.03;;;;;;;;;;5092815;28;20678;-80
2023/01/12 13:55:59;;;;;;;1.63;1.10;;;;;;;;;;5092319;28;20204;-82
2023/01/12 13:58:26;;;;;;;1.50;1.40;;;;;;;;;;5101996;28;20214;-81
2023/01/12 14:00:54;;;;;;;2.60;2.40;;;;;;;;;;5099240;28;20686;-81
2023/01/12 14:03:30;;;;;;;3.00;2.73;;;;;;;;;;5112780;28;20204;-80
2023/01/12 14:06:02;;;;;;;2.33;2.07;;;;;;;;;;5081860;28;20273;-81
2023/01/12 14:08:51;;;;;;;2.60;2.10;;;;;;;;;;5103878;28;20260;-82
2023/01/12 14:11:29;;;;;;;2.67;2.47;;;;;;;;;;5072464;28;20618;-81
2023/01/12 14:17:47;;;;;;;1.13;1.10;;;;;;;;;;5088802;28;20200;-81
2023/01/12 14:19:40;;;;;;;3.83;2.80;;;;;;;;;;5092317;28;20203;-81
2023/01/12 14:22:18;;;;;;;1.93;1.67;;;;;;;;;;5092775;28;20562;-82
2023/01/12 14:24:44;;;;;;;8.10;7.20;;;;;;;;;;5092087;28;20727;-81
2023/01/12 14:27:22;;;;;;;9.60;7.50;;;;;;;;;;5073082;28;20597;-81
2023/01/12 14:29:49;;;;;;;1.70;1.60;;;;;;;;;;5085706;28;20208;-81
2023/01/12 14:32:18;;;;;;;1.43;1.33;;;;;;;;;;5091630;28;20231;-81
2023/01/12 14:34:51;;;;;;;0.80;0.80;;;;;;;;;;5104711;28;20273;-81
2023/01/12 14:37:26;;;;;;;2.63;2.40;;;;;;;;;;5071992;28;20255;-81
2023/01/12 14:39:53;;;;;;;10.37;6.60;;;;;;;;;;5088031;28;20204;-80
2023/01/12 14:48:25;;;;;;;2.23;1.73;;;;;;;;;;5094826;28;20239;-81
2023/01/12 14:51:03;;;;;;;2.00;1.80;;;;;;;;;;5077968;28;20679;-82
2023/01/12 14:53:35;;;;;;;1.70;1.60;;;;;;;;;;5071473;28;20204;-80
2023/01/12 14:56:16;;;;;;;1.77;1.67;;;;;;;;;;5086630;28;20208;-81
2023/01/12 14:58:44;;;;;;;1.97;1.87;;;;;;;;;;5102139;28;20214;-81
2023/01/12 15:01:11;;;;;;;2.10;1.90;;;;;;;;;;5106931;28;20219;-81
2023/01/12 15:03:38;;;;;;;47.07;33.73;;;;;;;;;;5091750;28;20200;-81
2023/01/12 15:06:05;;;;;;;10.50;7.97;;;;;;;;;;5077534;28;20622;-81
2023/01/12 15:08:35;;;;;;;9.87;8.87;;;;;;;;;;5075003;28;20639;-81
2023/01/12 15:11:07;;;;;;;11.73;8.27;;;;;;;;;;5103140;28;20212;-87
2023/01/12 15:13:34;;;;;;;9.53;8.50;;;;;;;;;;5088835;28;20200;-81
2023/01/12 15:29:40;;;;;;;2.60;2.40;;;;;;;;;;5041647;28;20294;-81
2023/01/12 15:32:13;;;;;;;2.97;2.67;;;;;;;;;;5069758;28;20213;-83
2023/01/12 15:34:40;;;;;;;3.80;3.40;;;;;;;;;;5070269;28;20692;-81
2023/01/12 15:37:08;;;;;;;3.60;3.27;;;;;;;;;;5050389;28;20275;-82
2023/01/12 15:39:36;;;;;;;4.23;2.93;;;;;;;;;;5065153;28;20201;-81
2023/01/12 15:42:16;;;;;;;4.03;3.23;;;;;;;;;;5061419;28;20202;-82
2023/01/12 15:44:43;;;;;;;3.20;2.77;;;;;;;;;;5053781;28;20239;-82
2023/01/12 15:47:11;;;;;;;8.33;7.73;;;;;;;;;;5069925;28;20209;-84
2023/01/12 15:49:38;;;;;;;3.20;3.00;;;;;;;;;;5068916;28;20201;-82
2023/01/12 15:52:05;;;;;;;4.03;3.73;;;;;;;;;;5069395;28;20286;-82
2023/01/12 15:54:31;;;;;;;6.00;5.40;;;;;;;;;;5063972;28;20255;-82
2023/01/12 15:56:59;;;;;;;7.23;5.20;;;;;;;;;;5061411;28;20205;-81
2023/01/12 15:59:26;;;;;;;8.20;6.30;;;;;;;;;;5056116;28;20233;-81
2023/01/12 16:01:53;;;;;;;26.80;20.53;;;;;;;;;;5058317;28;20202;-83